sensor_id;sensor_type;location;lat;lon;timestamp;temperature;humidity
38973;DHT22;25333;50.762;4.470;2024-02-23T00:00:18;5.60;99.90
38973;DHT22;25333;50.762;4.470;2024-02-23T00:02:44;5.50;99.90
38973;DHT22;25333;50.762;4.470;2024-02-23T00:05:10;5.50;99.90
38973;DHT22;25333;50.762;4.470;2024-02-23T00:07:37;5.40;99.90
38973;DHT22;25333;50.762;4.470;2024-02-23T00:10:03;5.50;99.90
38973;DHT22;25333;50.762;4.470;2024-02-23T00:12:29;5.40;99.90
38973;DHT22;25333;50.762;4.470;2024-02-23T00:14:55;5.40;99.90
38973;DHT22;25333;50.762;4.470;2024-02-23T00:17:30;5.40;99.90
38973;DHT22;25333;50.762;4.470;2024-02-23T00:23:03;5.40;99.90
38973;DHT22;25333;50.762;4.470;2024-02-23T00:25:37;5.50;99.90
38973;DHT22;25333;50.762;4.470;2024-02-23T00:28:28;5.40;99.90
38973;DHT22;25333;50.762;4.470;2024-02-23T00:31:03;5.30;99.90
38973;DHT22;25333;50.762;4.470;2024-02-23T00:33:30;5.30;99.90
38973;DHT22;25333;50.762;4.470;2024-02-23T00:35:56;5.30;99.90
38973;DHT22;25333;50.762;4.470;2024-02-23T00:38:29;5.20;99.90
38973;DHT22;25333;50.762;4.470;2024-02-23T00:41:17;5.20;99.90
38973;DHT22;25333;50.762;4.470;2024-02-23T00:47:08;5.30;99.90
38973;DHT22;25333;50.762;4.470;2024-02-23T00:49:37;5.40;99.90
38973;DHT22;25333;50.762;4.470;2024-02-23T00:52:11;5.30;99.90
38973;DHT22;25333;50.762;4.470;2024-02-23T00:54:44;5.40;99.90
38973;DHT22;25333;50.762;4.470;2024-02-23T00:57:22;5.30;99.90
38973;DHT22;25333;50.762;4.470;2024-02-23T01:00:02;5.30;99.90
38973;DHT22;25333;50.762;4.470;2024-02-23T01:02:35;5.30;99.90
38973;DHT22;25333;50.762;4.470;2024-02-23T01:05:07;5.40;99.90
38973;DHT22;25333;50.762;4.470;2024-02-23T01:07:48;5.40;99.90
38973;DHT22;25333;50.762;4.470;2024-02-23T01:10:21;5.30;99.90
38973;DHT22;25333;50.762;4.470;2024-02-23T01:12:56;5.30;99.90
38973;DHT22;25333;50.762;4.470;2024-02-23T01:15:37;5.30;99.90
38973;DHT22;25333;50.762;4.470;2024-02-23T01:18:05;5.20;99.90
38973;DHT22;25333;50.762;4.470;2024-02-23T01:20:42;5.20;99.90
38973;DHT22;25333;50.762;4.470;2024-02-23T01:23:10;5.10;99.90
38973;DHT22;25333;50.762;4.470;2024-02-23T01:25:37;5.10;99.90
38973;DHT22;25333;50.762;4.470;2024-02-23T01:28:03;5.10;99.90
38973;DHT22;25333;50.762;4.470;2024-02-23T01:30:32;5.10;99.90
38973;DHT22;25333;50.762;4.470;2024-02-23T01:33:04;5.00;99.90
38973;DHT22;25333;50.762;4.470;2024-02-23T01:35:33;5.00;99.90
38973;DHT22;25333;50.762;4.470;2024-02-23T01:37:59;5.00;99.90
38973;DHT22;25333;50.762;4.470;2024-02-23T01:40:26;5.00;99.90
38973;DHT22;25333;50.762;4.470;2024-02-23T01:43:04;5.00;99.90
38973;DHT22;25333;50.762;4.470;2024-02-23T01:45:31;5.10;99.90
38973;DHT22;25333;50.762;4.470;2024-02-23T01:47:57;5.10;99.90
38973;DHT22;25333;50.762;4.470;2024-02-23T01:50:24;5.10;99.90
38973;DHT22;25333;50.762;4.470;2024-02-23T01:52:51;5.30;99.90
38973;DHT22;25333;50.762;4.470;2024-02-23T01:55:19;5.20;99.90
38973;DHT22;25333;50.762;4.470;2024-02-23T01:57:46;5.20;99.90
38973;DHT22;25333;50.762;4.470;2024-02-23T02:00:18;5.20;99.90
38973;DHT22;25333;50.762;4.470;2024-02-23T02:02:44;5.20;99.90
38973;DHT22;25333;50.762;4.470;2024-02-23T02:05:11;5.20;99.90
38973;DHT22;25333;50.762;4.470;2024-02-23T02:07:37;5.20;99.90
38973;DHT22;25333;50.762;4.470;2024-02-23T02:10:06;5.30;99.90
38973;DHT22;25333;50.762;4.470;2024-02-23T02:12:38;5.30;99.90
38973;DHT22;25333;50.762;4.470;2024-02-23T02:15:10;5.20;99.90
38973;DHT22;25333;50.762;4.470;2024-02-23T02:17:58;5.30;99.90
38973;DHT22;25333;50.762;4.470;2024-02-23T02:20:35;5.20;99.90
38973;DHT22;25333;50.762;4.470;2024-02-23T02:23:26;5.20;99.90
38973;DHT22;25333;50.762;4.470;2024-02-23T02:25:53;5.20;99.90
38973;DHT22;25333;50.762;4.470;2024-02-23T02:28:31;5.20;99.90
38973;DHT22;25333;50.762;4.470;2024-02-23T02:31:20;5.30;99.90
38973;DHT22;25333;50.762;4.470;2024-02-23T02:33:50;5.30;99.90
38973;DHT22;25333;50.762;4.470;2024-02-23T02:36:25;5.30;99.90
38973;DHT22;25333;50.762;4.470;2024-02-23T02:38:53;5.30;99.90
38973;DHT22;25333;50.762;4.470;2024-02-23T02:41:28;5.30;99.90
38973;DHT22;25333;50.762;4.470;2024-02-23T02:43:56;5.30;99.90
38973;DHT22;25333;50.762;4.470;2024-02-23T02:46:32;5.30;99.90
38973;DHT22;25333;50.762;4.470;2024-02-23T02:48:58;5.30;99.90
38973;DHT22;25333;50.762;4.470;2024-02-23T02:51:27;5.30;99.90
38973;DHT22;25333;50.762;4.470;2024-02-23T02:54:00;5.40;99.90
38973;DHT22;25333;50.762;4.470;2024-02-23T02:56:28;5.30;99.90
38973;DHT22;25333;50.762;4.470;2024-02-23T02:58:58;5.30;99.90
38973;DHT22;25333;50.762;4.470;2024-02-23T03:01:35;5.40;99.90
38973;DHT22;25333;50.762;4.470;2024-02-23T03:04:11;5.50;99.90
38973;DHT22;25333;50.762;4.470;2024-02-23T03:06:51;5.50;99.90
38973;DHT22;25333;50.762;4.470;2024-02-23T03:09:23;5.50;99.90
38973;DHT22;25333;50.762;4.470;2024-02-23T03:11:53;5.50;99.90
38973;DHT22;25333;50.762;4.470;2024-02-23T03:14:19;5.60;99.90
38973;DHT22;25333;50.762;4.470;2024-02-23T03:16:51;5.50;99.90
38973;DHT22;25333;50.762;4.470;2024-02-23T03:19:17;5.50;99.90
38973;DHT22;25333;50.762;4.470;2024-02-23T03:21:48;5.50;99.90
38973;DHT22;25333;50.762;4.470;2024-02-23T03:24:20;5.50;99.90
38973;DHT22;25333;50.762;4.470;2024-02-23T03:26:46;5.50;99.90
38973;DHT22;25333;50.762;4.470;2024-02-23T03:29:11;5.40;99.90
38973;DHT22;25333;50.762;4.470;2024-02-23T03:31:37;5.40;99.90
38973;DHT22;25333;50.762;4.470;2024-02-23T03:34:03;5.30;99.90
38973;DHT22;25333;50.762;4.470;2024-02-23T03:36:28;5.40;99.90
38973;DHT22;25333;50.762;4.470;2024-02-23T03:38:57;5.40;99.90
38973;DHT22;25333;50.762;4.470;2024-02-23T03:41:23;5.40;99.90
38973;DHT22;25333;50.762;4.470;2024-02-23T03:43:50;5.50;99.90
38973;DHT22;25333;50.762;4.470;2024-02-23T03:46:17;5.40;99.90
38973;DHT22;25333;50.762;4.470;2024-02-23T03:48:44;5.50;99.90
38973;DHT22;25333;50.762;4.470;2024-02-23T03:51:11;5.40;99.90
38973;DHT22;25333;50.762;4.470;2024-02-23T03:53:36;5.50;99.90
38973;DHT22;25333;50.762;4.470;2024-02-23T03:56:02;5.50;99.90
38973;DHT22;25333;50.762;4.470;2024-02-23T03:58:36;5.50;99.90
38973;DHT22;25333;50.762;4.470;2024-02-23T04:01:01;5.60;99.90
38973;DHT22;25333;50.762;4.470;2024-02-23T04:03:28;5.60;99.90
38973;DHT22;25333;50.762;4.470;2024-02-23T04:05:54;5.60;99.90
38973;DHT22;25333;50.762;4.470;2024-02-23T04:08:35;5.50;99.90
38973;DHT22;25333;50.762;4.470;2024-02-23T04:11:12;5.60;99.90
38973;DHT22;25333;50.762;4.470;2024-02-23T04:13:45;5.60;99.90
38973;DHT22;25333;50.762;4.470;2024-02-23T04:16:38;5.70;99.90
38973;DHT22;25333;50.762;4.470;2024-02-23T04:19:19;5.60;99.90
38973;DHT22;25333;50.762;4.470;2024-02-23T04:22:27;5.60;99.90
38973;DHT22;25333;50.762;4.470;2024-02-23T04:25:18;5.50;99.90
38973;DHT22;25333;50.762;4.470;2024-02-23T04:27:48;5.50;99.90
38973;DHT22;25333;50.762;4.470;2024-02-23T04:30:25;5.60;99.90
38973;DHT22;25333;50.762;4.470;2024-02-23T04:32:53;5.60;99.90
38973;DHT22;25333;50.762;4.470;2024-02-23T04:35:20;5.70;99.90
38973;DHT22;25333;50.762;4.470;2024-02-23T04:37:47;5.60;99.90
38973;DHT22;25333;50.762;4.470;2024-02-23T04:40:58;5.70;99.90
38973;DHT22;25333;50.762;4.470;2024-02-23T04:43:55;5.70;99.90
38973;DHT22;25333;50.762;4.470;2024-02-23T04:46:28;5.70;99.90
38973;DHT22;25333;50.762;4.470;2024-02-23T04:48:53;5.70;99.90
38973;DHT22;25333;50.762;4.470;2024-02-23T04:51:22;5.70;99.90
38973;DHT22;25333;50.762;4.470;2024-02-23T04:53:52;5.70;99.90
38973;DHT22;25333;50.762;4.470;2024-02-23T04:56:21;5.70;99.90
38973;DHT22;25333;50.762;4.470;2024-02-23T04:58:54;5.70;99.90
38973;DHT22;25333;50.762;4.470;2024-02-23T05:01:21;5.70;99.90
38973;DHT22;25333;50.762;4.470;2024-02-23T05:03:49;5.70;99.90
38973;DHT22;25333;50.762;4.470;2024-02-23T05:06:14;5.70;99.90
38973;DHT22;25333;50.762;4.470;2024-02-23T05:08:42;5.70;99.90
38973;DHT22;25333;50.762;4.470;2024-02-23T05:11:10;5.60;99.90
38973;DHT22;25333;50.762;4.470;2024-02-23T05:13:36;5.60;99.90
38973;DHT22;25333;50.762;4.470;2024-02-23T05:16:06;5.70;99.90
38973;DHT22;25333;50.762;4.470;2024-02-23T05:18:32;5.70;99.90
38973;DHT22;25333;50.762;4.470;2024-02-23T05:21:01;5.70;99.90
38973;DHT22;25333;50.762;4.470;2024-02-23T05:23:27;5.60;99.90
38973;DHT22;25333;50.762;4.470;2024-02-23T05:25:52;5.70;99.90
38973;DHT22;25333;50.762;4.470;2024-02-23T05:28:19;5.70;99.90
38973;DHT22;25333;50.762;4.470;2024-02-23T05:30:46;5.60;99.90
38973;DHT22;25333;50.762;4.470;2024-02-23T05:33:12;5.60;99.90
38973;DHT22;25333;50.762;4.470;2024-02-23T05:35:38;5.60;99.90
38973;DHT22;25333;50.762;4.470;2024-02-23T05:38:04;5.50;99.90
38973;DHT22;25333;50.762;4.470;2024-02-23T05:40:32;5.60;99.90
38973;DHT22;25333;50.762;4.470;2024-02-23T05:42:58;5.60;99.90
38973;DHT22;25333;50.762;4.470;2024-02-23T05:45:24;5.60;99.90
38973;DHT22;25333;50.762;4.470;2024-02-23T05:47:50;5.60;99.90
38973;DHT22;25333;50.762;4.470;2024-02-23T05:50:15;5.60;99.90
38973;DHT22;25333;50.762;4.470;2024-02-23T05:52:41;5.60;99.90
38973;DHT22;25333;50.762;4.470;2024-02-23T05:55:07;5.60;99.90
38973;DHT22;25333;50.762;4.470;2024-02-23T05:57:37;5.60;99.90
38973;DHT22;25333;50.762;4.470;2024-02-23T06:00:05;5.60;99.90
38973;DHT22;25333;50.762;4.470;2024-02-23T06:02:54;5.60;99.90
38973;DHT22;25333;50.762;4.470;2024-02-23T06:05:46;5.60;99.90
38973;DHT22;25333;50.762;4.470;2024-02-23T06:08:27;5.60;99.90
38973;DHT22;25333;50.762;4.470;2024-02-23T06:11:16;5.60;99.90
38973;DHT22;25333;50.762;4.470;2024-02-23T06:13:42;5.60;99.90
38973;DHT22;25333;50.762;4.470;2024-02-23T06:16:30;5.60;99.90
38973;DHT22;25333;50.762;4.470;2024-02-23T06:18:59;5.70;99.90
38973;DHT22;25333;50.762;4.470;2024-02-23T06:21:52;5.70;99.90
38973;DHT22;25333;50.762;4.470;2024-02-23T06:24:40;5.60;99.90
38973;DHT22;25333;50.762;4.470;2024-02-23T06:27:42;5.70;99.90
38973;DHT22;25333;50.762;4.470;2024-02-23T06:30:36;5.70;99.90
38973;DHT22;25333;50.762;4.470;2024-02-23T06:33:03;5.60;99.90
38973;DHT22;25333;50.762;4.470;2024-02-23T06:35:32;5.70;99.90
38973;DHT22;25333;50.762;4.470;2024-02-23T06:38:00;5.70;99.90
38973;DHT22;25333;50.762;4.470;2024-02-23T06:40:33;5.70;99.90
38973;DHT22;25333;50.762;4.470;2024-02-23T06:43:04;5.60;99.90
38973;DHT22;25333;50.762;4.470;2024-02-23T06:45:31;5.70;99.90
38973;DHT22;25333;50.762;4.470;2024-02-23T06:50:31;5.70;99.90
38973;DHT22;25333;50.762;4.470;2024-02-23T06:52:57;5.70;99.90
38973;DHT22;25333;50.762;4.470;2024-02-23T06:55:31;5.80;99.90
38973;DHT22;25333;50.762;4.470;2024-02-23T06:58:07;5.80;99.90
38973;DHT22;25333;50.762;4.470;2024-02-23T07:00:37;5.80;99.90
38973;DHT22;25333;50.762;4.470;2024-02-23T07:03:05;5.80;99.90
38973;DHT22;25333;50.762;4.470;2024-02-23T07:05:32;5.80;99.90
38973;DHT22;25333;50.762;4.470;2024-02-23T07:07:58;5.80;99.90
38973;DHT22;25333;50.762;4.470;2024-02-23T07:10:24;5.80;99.90
38973;DHT22;25333;50.762;4.470;2024-02-23T07:12:52;5.80;99.90
38973;DHT22;25333;50.762;4.470;2024-02-23T07:15:25;5.90;99.90
38973;DHT22;25333;50.762;4.470;2024-02-23T07:18:01;5.90;99.90
38973;DHT22;25333;50.762;4.470;2024-02-23T07:20:30;5.90;99.90
38973;DHT22;25333;50.762;4.470;2024-02-23T07:22:57;5.90;99.90
38973;DHT22;25333;50.762;4.470;2024-02-23T07:25:23;5.90;99.90
38973;DHT22;25333;50.762;4.470;2024-02-23T07:28:21;5.90;99.90
38973;DHT22;25333;50.762;4.470;2024-02-23T07:31:15;5.90;99.90
38973;DHT22;25333;50.762;4.470;2024-02-23T07:34:30;6.00;99.90
38973;DHT22;25333;50.762;4.470;2024-02-23T07:37:20;6.00;99.90
38973;DHT22;25333;50.762;4.470;2024-02-23T07:41:00;6.00;99.90
38973;DHT22;25333;50.762;4.470;2024-02-23T07:43:44;6.00;99.90
38973;DHT22;25333;50.762;4.470;2024-02-23T07:46:53;6.00;99.90
38973;DHT22;25333;50.762;4.470;2024-02-23T07:49:27;6.00;99.90
38973;DHT22;25333;50.762;4.470;2024-02-23T07:52:15;6.00;99.90
38973;DHT22;25333;50.762;4.470;2024-02-23T07:55:43;6.00;99.90
38973;DHT22;25333;50.762;4.470;2024-02-23T08:03:45;6.10;99.90
38973;DHT22;25333;50.762;4.470;2024-02-23T08:06:48;6.20;99.90
38973;DHT22;25333;50.762;4.470;2024-02-23T08:09:46;6.20;99.90
38973;DHT22;25333;50.762;4.470;2024-02-23T08:12:21;6.20;99.90
38973;DHT22;25333;50.762;4.470;2024-02-23T08:14:48;6.20;99.90
38973;DHT22;25333;50.762;4.470;2024-02-23T08:17:24;6.20;99.90
38973;DHT22;25333;50.762;4.470;2024-02-23T08:20:27;6.10;99.90
38973;DHT22;25333;50.762;4.470;2024-02-23T08:23:02;5.90;99.90
38973;DHT22;25333;50.762;4.470;2024-02-23T08:26:41;5.80;99.90
38973;DHT22;25333;50.762;4.470;2024-02-23T08:30:30;5.70;99.90
38973;DHT22;25333;50.762;4.470;2024-02-23T08:34:08;5.70;99.90
38973;DHT22;25333;50.762;4.470;2024-02-23T08:37:15;5.70;99.90
38973;DHT22;25333;50.762;4.470;2024-02-23T08:44:09;5.60;99.90
38973;DHT22;25333;50.762;4.470;2024-02-23T08:47:41;5.60;99.90
38973;DHT22;25333;50.762;4.470;2024-02-23T09:00:43;5.90;99.90
38973;DHT22;25333;50.762;4.470;2024-02-23T09:07:41;5.90;99.90
38973;DHT22;25333;50.762;4.470;2024-02-23T09:11:08;5.90;99.90
38973;DHT22;25333;50.762;4.470;2024-02-23T09:14:56;6.00;99.90
38973;DHT22;25333;50.762;4.470;2024-02-23T09:24:54;6.00;99.90
38973;DHT22;25333;50.762;4.470;2024-02-23T09:30:56;6.10;99.90
38973;DHT22;25333;50.762;4.470;2024-02-23T09:34:27;6.10;99.90
38973;DHT22;25333;50.762;4.470;2024-02-23T09:37:19;6.10;99.90
38973;DHT22;25333;50.762;4.470;2024-02-23T09:49:37;6.30;99.90
38973;DHT22;25333;50.762;4.470;2024-02-23T09:53:14;6.40;99.90
38973;DHT22;25333;50.762;4.470;2024-02-23T09:56:25;6.40;99.90
38973;DHT22;25333;50.762;4.470;2024-02-23T09:59:09;6.50;99.90
38973;DHT22;25333;50.762;4.470;2024-02-23T10:02:08;6.50;99.90
38973;DHT22;25333;50.762;4.470;2024-02-23T10:05:51;6.50;99.90
38973;DHT22;25333;50.762;4.470;2024-02-23T10:11:24;6.50;99.90
38973;DHT22;25333;50.762;4.470;2024-02-23T10:18:08;6.50;99.90
38973;DHT22;25333;50.762;4.470;2024-02-23T10:21:00;6.60;99.90
38973;DHT22;25333;50.762;4.470;2024-02-23T10:27:45;6.70;99.90
38973;DHT22;25333;50.762;4.470;2024-02-23T10:30:31;6.70;99.90
38973;DHT22;25333;50.762;4.470;2024-02-23T10:33:33;6.80;99.90
38973;DHT22;25333;50.762;4.470;2024-02-23T10:36:01;6.90;99.90
38973;DHT22;25333;50.762;4.470;2024-02-23T10:38:31;6.90;99.90
38973;DHT22;25333;50.762;4.470;2024-02-23T10:41:14;7.00;99.90
38973;DHT22;25333;50.762;4.470;2024-02-23T10:43:44;7.00;99.90
38973;DHT22;25333;50.762;4.470;2024-02-23T10:46:34;7.00;99.90
38973;DHT22;25333;50.762;4.470;2024-02-23T10:55:41;7.20;99.90
38973;DHT22;25333;50.762;4.470;2024-02-23T11:01:36;7.40;99.90
38973;DHT22;25333;50.762;4.470;2024-02-23T11:04:03;7.30;99.90
38973;DHT22;25333;50.762;4.470;2024-02-23T11:06:59;7.30;99.90
38973;DHT22;25333;50.762;4.470;2024-02-23T11:10:42;7.30;99.90
38973;DHT22;25333;50.762;4.470;2024-02-23T11:14:02;7.50;99.90
38973;DHT22;25333;50.762;4.470;2024-02-23T11:17:17;7.60;99.90
38973;DHT22;25333;50.762;4.470;2024-02-23T11:24:25;7.60;99.90
38973;DHT22;25333;50.762;4.470;2024-02-23T11:27:29;7.60;99.90
38973;DHT22;25333;50.762;4.470;2024-02-23T11:30:44;7.50;99.90
38973;DHT22;25333;50.762;4.470;2024-02-23T11:33:12;7.40;99.90
38973;DHT22;25333;50.762;4.470;2024-02-23T11:36:09;7.40;99.90
38973;DHT22;25333;50.762;4.470;2024-02-23T11:39:14;7.50;99.90
38973;DHT22;25333;50.762;4.470;2024-02-23T11:41:41;7.50;99.90
38973;DHT22;25333;50.762;4.470;2024-02-23T11:44:08;7.50;99.90
38973;DHT22;25333;50.762;4.470;2024-02-23T11:47:21;7.50;99.90
38973;DHT22;25333;50.762;4.470;2024-02-23T11:49:50;7.50;99.90
38973;DHT22;25333;50.762;4.470;2024-02-23T11:52:25;7.50;99.90
38973;DHT22;25333;50.762;4.470;2024-02-23T11:55:19;7.50;99.90
38973;DHT22;25333;50.762;4.470;2024-02-23T11:57:49;7.50;99.90
38973;DHT22;25333;50.762;4.470;2024-02-23T12:00:29;7.50;99.90
38973;DHT22;25333;50.762;4.470;2024-02-23T12:06:51;7.50;99.90
38973;DHT22;25333;50.762;4.470;2024-02-23T12:10:00;7.60;99.90
38973;DHT22;25333;50.762;4.470;2024-02-23T12:12:32;7.70;99.90
38973;DHT22;25333;50.762;4.470;2024-02-23T12:14:58;7.80;99.90
38973;DHT22;25333;50.762;4.470;2024-02-23T12:17:57;7.90;99.90
38973;DHT22;25333;50.762;4.470;2024-02-23T12:20:26;7.90;99.90
38973;DHT22;25333;50.762;4.470;2024-02-23T12:23:16;7.90;99.90
38973;DHT22;25333;50.762;4.470;2024-02-23T12:29:17;8.10;99.90
38973;DHT22;25333;50.762;4.470;2024-02-23T12:32:33;8.10;99.90
38973;DHT22;25333;50.762;4.470;2024-02-23T12:35:58;8.00;99.90
38973;DHT22;25333;50.762;4.470;2024-02-23T12:44:57;8.30;99.90
38973;DHT22;25333;50.762;4.470;2024-02-23T12:47:26;8.20;99.90
38973;DHT22;25333;50.762;4.470;2024-02-23T12:50:32;8.00;99.90
38973;DHT22;25333;50.762;4.470;2024-02-23T12:53:47;8.00;99.90
38973;DHT22;25333;50.762;4.470;2024-02-23T12:56:52;8.10;99.90
38973;DHT22;25333;50.762;4.470;2024-02-23T13:03:29;8.50;99.90
38973;DHT22;25333;50.762;4.470;2024-02-23T13:16:10;8.20;99.90
38973;DHT22;25333;50.762;4.470;2024-02-23T13:18:41;8.10;99.90
38973;DHT22;25333;50.762;4.470;2024-02-23T13:21:38;8.10;99.90
38973;DHT22;25333;50.762;4.470;2024-02-23T13:24:29;8.20;99.90
38973;DHT22;25333;50.762;4.470;2024-02-23T13:27:06;8.30;99.90
38973;DHT22;25333;50.762;4.470;2024-02-23T13:29:41;8.50;99.90
38973;DHT22;25333;50.762;4.470;2024-02-23T13:32:08;8.60;99.90
38973;DHT22;25333;50.762;4.470;2024-02-23T13:34:38;8.80;99.90
38973;DHT22;25333;50.762;4.470;2024-02-23T13:37:24;8.80;99.90
38973;DHT22;25333;50.762;4.470;2024-02-23T13:39:57;8.80;99.90
38973;DHT22;25333;50.762;4.470;2024-02-23T13:42:34;8.80;99.90
38973;DHT22;25333;50.762;4.470;2024-02-23T13:49:26;8.50;99.90
38973;DHT22;25333;50.762;4.470;2024-02-23T13:52:20;8.60;99.90
38973;DHT22;25333;50.762;4.470;2024-02-23T13:55:16;8.60;99.90
38973;DHT22;25333;50.762;4.470;2024-02-23T13:57:53;8.70;99.90
38973;DHT22;25333;50.762;4.470;2024-02-23T14:00:25;8.70;99.90
38973;DHT22;25333;50.762;4.470;2024-02-23T14:03:29;8.70;99.90
38973;DHT22;25333;50.762;4.470;2024-02-23T14:06:24;8.80;99.90
38973;DHT22;25333;50.762;4.470;2024-02-23T14:09:16;8.80;99.90
38973;DHT22;25333;50.762;4.470;2024-02-23T14:19:20;8.70;99.90
38973;DHT22;25333;50.762;4.470;2024-02-23T14:22:53;8.70;99.90
38973;DHT22;25333;50.762;4.470;2024-02-23T14:26:31;8.70;99.90
38973;DHT22;25333;50.762;4.470;2024-02-23T14:57:48;8.60;99.90
38973;DHT22;25333;50.762;4.470;2024-02-23T15:01:14;8.70;99.90
38973;DHT22;25333;50.762;4.470;2024-02-23T15:04:32;8.80;99.90
38973;DHT22;25333;50.762;4.470;2024-02-23T15:10:48;8.80;99.90
38973;DHT22;25333;50.762;4.470;2024-02-23T15:13:43;8.80;99.90
38973;DHT22;25333;50.762;4.470;2024-02-23T15:20:24;8.70;99.90
38973;DHT22;25333;50.762;4.470;2024-02-23T15:26:52;8.50;99.90
38973;DHT22;25333;50.762;4.470;2024-02-23T15:42:58;8.60;99.90
38973;DHT22;25333;50.762;4.470;2024-02-23T15:49:29;8.40;99.90
38973;DHT22;25333;50.762;4.470;2024-02-23T15:51:55;8.40;99.90
38973;DHT22;25333;50.762;4.470;2024-02-23T16:00:47;8.40;99.90
38973;DHT22;25333;50.762;4.470;2024-02-23T16:04:02;8.40;99.90
38973;DHT22;25333;50.762;4.470;2024-02-23T16:10:21;8.50;99.90
38973;DHT22;25333;50.762;4.470;2024-02-23T16:16:56;8.50;99.90
38973;DHT22;25333;50.762;4.470;2024-02-23T16:23:30;8.50;99.90
38973;DHT22;25333;50.762;4.470;2024-02-23T16:26:36;8.40;99.90
38973;DHT22;25333;50.762;4.470;2024-02-23T16:32:39;8.50;99.90
38973;DHT22;25333;50.762;4.470;2024-02-23T16:40:52;8.30;99.90
38973;DHT22;25333;50.762;4.470;2024-02-23T16:43:52;8.30;99.90
38973;DHT22;25333;50.762;4.470;2024-02-23T16:46:23;8.30;99.90
38973;DHT22;25333;50.762;4.470;2024-02-23T16:52:48;8.20;99.90
38973;DHT22;25333;50.762;4.470;2024-02-23T16:55:29;8.20;99.90
38973;DHT22;25333;50.762;4.470;2024-02-23T17:01:38;8.10;99.90
38973;DHT22;25333;50.762;4.470;2024-02-23T17:04:11;8.00;99.90
38973;DHT22;25333;50.762;4.470;2024-02-23T17:07:03;8.00;99.90
38973;DHT22;25333;50.762;4.470;2024-02-23T17:09:33;7.90;99.90
38973;DHT22;25333;50.762;4.470;2024-02-23T17:15:24;7.90;99.90
38973;DHT22;25333;50.762;4.470;2024-02-23T17:24:23;7.80;99.90
38973;DHT22;25333;50.762;4.470;2024-02-23T17:27:32;7.90;99.90
38973;DHT22;25333;50.762;4.470;2024-02-23T17:43:05;7.60;99.90
38973;DHT22;25333;50.762;4.470;2024-02-23T17:46:08;7.60;99.90
38973;DHT22;25333;50.762;4.470;2024-02-23T17:52:10;7.50;99.90
38973;DHT22;25333;50.762;4.470;2024-02-23T17:55:05;7.50;99.90
38973;DHT22;25333;50.762;4.470;2024-02-23T18:11:13;7.50;99.90
38973;DHT22;25333;50.762;4.470;2024-02-23T18:17:46;7.40;99.90
38973;DHT22;25333;50.762;4.470;2024-02-23T18:24:19;7.30;99.90
38973;DHT22;25333;50.762;4.470;2024-02-23T18:53:48;7.00;99.90
38973;DHT22;25333;50.762;4.470;2024-02-23T18:56:54;7.10;99.90
38973;DHT22;25333;50.762;4.470;2024-02-23T19:07:22;6.90;99.90
38973;DHT22;25333;50.762;4.470;2024-02-23T19:28:09;5.80;99.90
